Tangail, Bangladesh
Current Conditions -  °F | °C
As of 8:50 PM on Sunday 21 Dec 2014 (Local Time) from VGHS Reporting Station
Haze Haze  
Wind Chill: 21°   Ceiling: 10000
Heat Index: 21°   Visibility: 2.1mi
Dew Point: 13°   Wind: 6mph
Humidity: 60%   Direction: 300°WNW
Pressure: 29.91"   Gusts: NA
Location:  24.25°N, 89.92°E
Report Text: VGHS 211450Z 30005KT 3500 HZ SCT015 BKN100 21/13 Q1013 NOSIG
Loading
Personal Weather Stations






























Interactive Weather Map New forecast layout! Learn more

10-Day Weather Forecast

Advertisements
Track Severe Weather on mobile